Time;durP1;ratioP1;P1;durP2;ratioP2;P2;SDS_P1;SDS_P2;PMS_P1;PMS_P2;Temp;Humidity;BMP_temperature;BMP_pressure;BME280_temperature;BME280_humidity;BME280_pressure;Samples;Min_cycle;Max_cycle;Signal;HPM_P1;HPM_P2
2023/08/05 00:00:45;;;;;;;11.30;8.70;;;;;;;;;;108928;1264;56738;-77
2023/08/05 00:03:12;;;;;;;10.00;8.80;;;;;;;;;;108850;1256;59576;-79
2023/08/05 00:05:40;;;;;;;11.00;9.20;;;;;;;;;;109223;1253;57530;-78
2023/08/05 00:08:07;;;;;;;10.30;8.70;;;;;;;;;;108068;1257;58893;-75
2023/08/05 00:10:35;;;;;;;9.40;8.50;;;;;;;;;;106266;1254;59675;-79
2023/08/05 00:13:02;;;;;;;9.30;8.30;;;;;;;;;;105943;1254;60355;-77
2023/08/05 00:15:29;;;;;;;9.40;7.80;;;;;;;;;;106112;1254;60865;-79
2023/08/05 00:17:57;;;;;;;8.80;7.90;;;;;;;;;;106058;1257;59717;-79
2023/08/05 00:20:24;;;;;;;9.30;8.10;;;;;;;;;;106180;1254;59606;-81
2023/08/05 00:22:52;;;;;;;8.90;8.00;;;;;;;;;;105863;1254;60082;-82
2023/08/05 00:25:19;;;;;;;8.50;7.70;;;;;;;;;;106312;1257;59631;-81
2023/08/05 00:27:47;;;;;;;9.60;8.30;;;;;;;;;;105984;1254;59651;-81
2023/08/05 00:30:14;;;;;;;8.20;7.40;;;;;;;;;;106808;1257;59582;-81
2023/08/05 00:32:42;;;;;;;8.40;7.40;;;;;;;;;;107281;1254;59524;-80
2023/08/05 00:35:09;;;;;;;10.40;9.10;;;;;;;;;;108086;1253;59541;-80
2023/08/05 00:41:24;;;;;;;11.30;8.10;;;;;;;;;;106395;1258;59674;-79
2023/08/05 00:43:51;;;;;;;10.20;8.60;;;;;;;;;;106084;1259;59853;-77
2023/08/05 00:46:22;;;;;;;8.80;7.10;;;;;;;;;;106969;1254;59171;-77
2023/08/05 00:48:51;;;;;;;8.10;7.30;;;;;;;;;;108113;1253;59551;-76
2023/08/05 00:51:20;;;;;;;8.20;7.10;;;;;;;;;;108105;1257;58262;-77
2023/08/05 00:53:47;;;;;;;11.30;8.70;;;;;;;;;;105971;1254;59640;-76
2023/08/05 00:56:15;;;;;;;8.30;7.50;;;;;;;;;;105805;1258;59602;-78
2023/08/05 00:58:43;;;;;;;9.40;8.40;;;;;;;;;;106149;1257;59541;-76
2023/08/05 01:01:10;;;;;;;9.50;7.90;;;;;;;;;;106041;1257;60133;-77
2023/08/05 01:03:37;;;;;;;8.50;7.50;;;;;;;;;;107016;1257;59589;-76
2023/08/05 01:06:06;;;;;;;10.30;8.00;;;;;;;;;;107578;1254;60345;-75
2023/08/05 01:08:33;;;;;;;10.20;7.20;;;;;;;;;;107164;1254;59612;-74
2023/08/05 01:11:01;;;;;;;9.20;7.70;;;;;;;;;;106072;1254;59591;-75
2023/08/05 01:13:31;;;;;;;9.30;8.00;;;;;;;;;;105787;1261;60135;-75
2023/08/05 01:15:58;;;;;;;9.50;8.60;;;;;;;;;;106023;1254;59806;-76
2023/08/05 01:18:26;;;;;;;9.00;8.10;;;;;;;;;;106089;1256;59724;-77
2023/08/05 01:20:54;;;;;;;8.50;7.70;;;;;;;;;;106090;1251;59611;-78
2023/08/05 01:23:34;;;;;;;10.70;8.00;;;;;;;;;;106026;1251;59650;-77
2023/08/05 01:26:02;;;;;;;8.40;7.40;;;;;;;;;;106163;1254;60183;-77
2023/08/05 01:28:30;;;;;;;8.30;7.40;;;;;;;;;;106115;1257;59759;-78
2023/08/05 01:30:58;;;;;;;11.20;8.00;;;;;;;;;;106128;1254;59733;-79
2023/08/05 01:33:25;;;;;;;9.10;8.20;;;;;;;;;;106758;1250;59618;-77
2023/08/05 01:35:53;;;;;;;8.30;7.50;;;;;;;;;;107862;1251;59609;-77
2023/08/05 01:38:20;;;;;;;9.40;7.70;;;;;;;;;;108147;1251;59545;-79
2023/08/05 01:40:48;;;;;;;8.50;7.70;;;;;;;;;;106225;1254;59684;-79
2023/08/05 01:43:15;;;;;;;8.90;7.40;;;;;;;;;;106379;1251;61734;-78
2023/08/05 01:45:43;;;;;;;9.80;7.40;;;;;;;;;;107361;1254;59701;-78
2023/08/05 01:48:11;;;;;;;9.30;8.20;;;;;;;;;;107118;1250;59538;-74
2023/08/05 01:51:56;;;;;;;8.80;7.90;;;;;;;24.70;72.87;99681.91;103465;1293;600841;-77
2023/08/05 01:54:24;;;;;;;9.50;8.60;;;;;;;24.64;72.77;99686.77;106083;1272;59100;-77
2023/08/05 01:56:51;;;;;;;8.60;7.70;;;;;;;24.63;73.07;99691.39;106302;1267;59312;-75
2023/08/05 01:59:19;;;;;;;9.00;8.10;;;;;;;24.66;73.04;99694.27;105656;1269;73337;-77
2023/08/05 02:01:47;;;;;;;8.50;7.70;;;;;;;24.66;72.85;99689.94;106108;1257;69336;-79
2023/08/05 02:04:15;;;;;;;9.50;8.50;;;;;;;24.63;72.92;99694.84;106690;1257;71657;-79
2023/08/05 02:06:43;;;;;;;10.00;8.70;;;;;;;24.60;73.32;99700.05;107638;1254;322804;-77
2023/08/05 02:09:10;;;;;;;8.70;7.80;;;;;;;24.57;73.06;99699.88;107390;1254;59827;-77
2023/08/05 02:11:38;;;;;;;10.20;8.10;;;;;;;24.56;73.11;99702.04;105959;1255;72472;-74
2023/08/05 02:14:06;;;;;;;8.20;7.50;;;;;;;24.61;72.67;99703.91;105766;1254;70496;-74
2023/08/05 02:16:34;;;;;;;8.30;7.40;;;;;;;24.65;72.44;99706.55;105735;1254;71747;-75
2023/08/05 02:19:01;;;;;;;9.10;8.30;;;;;;;24.65;72.35;99706.61;105860;1254;59688;-77
2023/08/05 02:21:29;;;;;;;8.80;7.90;;;;;;;24.64;72.33;99705.63;105910;1254;60897;-76
2023/08/05 02:23:57;;;;;;;8.40;7.70;;;;;;;24.64;71.99;99711.87;105922;1254;72122;-74
2023/08/05 02:26:24;;;;;;;8.70;7.70;;;;;;;24.63;71.82;99708.93;105741;1259;69457;-73
2023/08/05 02:28:52;;;;;;;9.20;8.30;;;;;;;24.62;72.04;99715.27;105884;1254;72880;-72
2023/08/05 02:31:20;;;;;;;8.90;7.90;;;;;;;24.60;71.88;99718.35;106101;1256;60450;-73
2023/08/05 02:33:48;;;;;;;9.00;8.20;;;;;;;24.63;72.02;99724.41;107327;1253;60006;-75
2023/08/05 02:36:15;;;;;;;8.60;7.40;;;;;;;24.68;72.05;99724.70;107484;1254;71809;-75
2023/08/05 02:38:43;;;;;;;8.70;7.80;;;;;;;24.69;71.69;99728.41;107797;1253;69425;-75
2023/08/05 02:41:12;;;;;;;9.30;7.90;;;;;;;24.68;71.65;99724.81;106250;1257;70684;-75
2023/08/05 02:43:40;;;;;;;9.30;8.30;;;;;;;24.66;71.67;99724.91;106097;1253;59739;-78
2023/08/05 02:46:08;;;;;;;9.10;8.30;;;;;;;24.65;71.62;99731.59;105777;1253;60853;-77
2023/08/05 02:48:36;;;;;;;8.90;8.00;;;;;;;24.63;71.79;99733.38;105751;1258;73036;-75
2023/08/05 02:51:03;;;;;;;8.60;7.60;;;;;;;24.61;71.48;99732.64;106093;1255;69462;-74
2023/08/05 02:53:31;;;;;;;8.80;8.00;;;;;;;24.59;71.54;99733.93;105726;1262;71188;-76
2023/08/05 02:55:59;;;;;;;8.80;8.00;;;;;;;24.58;71.42;99730.07;105988;1259;61953;-76
2023/08/05 02:58:26;;;;;;;8.90;7.70;;;;;;;24.63;71.28;99736.80;105773;1259;61070;-75
2023/08/05 03:00:54;;;;;;;9.60;7.90;;;;;;;24.65;71.10;99739.14;107643;1259;72910;-75
2023/08/05 03:03:22;;;;;;;8.90;8.10;;;;;;;24.64;71.30;99734.84;107482;1254;68828;-76
2023/08/05 03:05:50;;;;;;;8.60;7.80;;;;;;;24.64;71.54;99733.81;107426;1253;71455;-77
2023/08/05 03:08:17;;;;;;;9.60;8.60;;;;;;;24.63;71.70;99733.86;108592;1254;60047;-80
2023/08/05 03:10:45;;;;;;;9.60;8.60;;;;;;;24.62;71.67;99735.42;107478;1254;59557;-77
2023/08/05 03:13:13;;;;;;;9.20;8.30;;;;;;;24.62;71.57;99735.16;105908;1260;72990;-76
2023/08/05 03:15:43;;;;;;;8.80;8.00;;;;;;;24.62;71.56;99736.29;105935;1258;69028;-77
2023/08/05 03:18:15;;;;;;;10.80;8.60;;;;;;;24.69;71.36;99738.67;106136;1254;72415;-78
2023/08/05 03:20:44;;;;;;;10.10;8.30;;;;;;;24.74;70.94;99739.47;105895;1259;59624;-78
2023/08/05 03:23:14;;;;;;;9.80;8.90;;;;;;;24.73;71.02;99743.00;106285;1259;59602;-79
2023/08/05 03:25:45;;;;;;;12.80;9.80;;;;;;;24.73;71.30;99742.13;105744;1253;73423;-78
2023/08/05 03:28:13;;;;;;;9.50;8.30;;;;;;;24.73;71.51;99742.73;105883;1254;69453;-78
2023/08/05 03:30:44;;;;;;;10.10;9.10;;;;;;;24.73;71.28;99736.75;105907;1258;72459;-78
2023/08/05 03:33:16;;;;;;;10.70;9.70;;;;;;;24.72;71.15;99732.14;106226;1254;60104;-80
2023/08/05 03:35:45;;;;;;;10.00;8.80;;;;;;;24.73;71.24;99730.77;107340;1257;59483;-79
2023/08/05 03:38:15;;;;;;;10.70;8.50;;;;;;;24.81;71.63;99722.40;109067;1253;71768;-77
2023/08/05 03:40:43;;;;;;;10.70;9.00;;;;;;;24.88;71.46;99716.90;109020;1254;68846;-78
2023/08/05 03:43:10;;;;;;;11.00;9.30;;;;;;;24.91;71.59;99719.35;107610;1253;71708;-76
2023/08/05 03:45:38;;;;;;;10.20;9.20;;;;;;;24.93;71.50;99714.70;107301;1254;60214;-80
2023/08/05 03:48:06;;;;;;;13.30;10.00;;;;;;;24.95;71.43;99711.55;107565;1254;59641;-78
2023/08/05 03:50:34;;;;;;;10.40;9.40;;;;;;;24.96;71.40;99712.60;107617;1256;71441;-78
2023/08/05 03:53:02;;;;;;;11.10;9.50;;;;;;;24.95;71.33;99710.90;106199;1254;70596;-76
2023/08/05 03:55:31;;;;;;;10.90;9.20;;;;;;;24.96;71.14;99715.20;106193;1254;71501;-78
2023/08/05 03:57:59;;;;;;;9.80;8.80;;;;;;;24.95;71.07;99710.73;106931;1259;60763;-77
2023/08/05 04:00:28;;;;;;;15.10;9.80;;;;;;;25.03;71.02;99711.81;107141;1253;59692;-79
2023/08/05 04:02:56;;;;;;;11.60;10.40;;;;;;;25.10;70.71;99713.36;107400;1258;73028;-78
2023/08/05 04:05:23;;;;;;;13.00;11.10;;;;;;;25.13;70.60;99715.77;107553;1254;68923;-79
2023/08/05 04:07:53;;;;;;;12.20;11.00;;;;;;;25.16;70.64;99715.51;108453;1254;71403;-78
2023/08/05 04:10:22;;;;;;;11.90;10.70;;;;;;;25.19;70.41;99709.33;109194;1254;59580;-78
2023/08/05 04:12:50;;;;;;;12.00;10.50;;;;;;;25.23;70.34;99708.89;106927;1257;59564;-77
2023/08/05 04:15:19;;;;;;;11.60;10.10;;;;;;;25.27;70.10;99706.17;106656;1254;71638;-76
2023/08/05 04:17:48;;;;;;;10.80;9.80;;;;;;;25.40;69.96;99712.80;106582;1260;71736;-76
2023/08/05 04:20:17;;;;;;;11.50;10.50;;;;;;;25.54;69.55;99716.33;106729;1254;71609;-80
2023/08/05 04:22:49;;;;;;;11.70;9.90;;;;;;;25.67;69.17;99718.05;107503;1254;60178;-82
2023/08/05 04:25:16;;;;;;;10.00;8.90;;;;;;;25.83;68.83;99718.63;105958;1254;60318;-80
2023/08/05 04:27:45;;;;;;;11.90;9.60;;;;;;;25.95;68.08;99710.66;106224;1262;73601;-82
2023/08/05 04:30:12;;;;;;;12.70;9.90;;;;;;;26.07;68.22;99716.05;106249;1257;68691;-80
2023/08/05 04:32:40;;;;;;;12.20;9.40;;;;;;;26.21;67.96;99715.48;105838;1258;72652;-80
2023/08/05 04:35:08;;;;;;;10.50;8.70;;;;;;;26.30;67.39;99716.02;106172;1255;60179;-78
2023/08/05 04:37:36;;;;;;;9.90;9.00;;;;;;;26.36;66.88;99713.29;109020;1252;58913;-77
2023/08/05 04:40:04;;;;;;;11.90;9.40;;;;;;;26.41;66.89;99715.25;109450;1257;72067;-78
2023/08/05 04:42:31;;;;;;;11.40;10.40;;;;;;;26.48;67.03;99716.29;107683;1258;69192;-76
2023/08/05 04:45:00;;;;;;;10.50;9.50;;;;;;;26.59;66.79;99719.11;106655;1254;72673;-76
2023/08/05 04:47:31;;;;;;;11.10;8.90;;;;;;;26.83;66.68;99721.98;108032;1253;59682;-78
2023/08/05 04:49:59;;;;;;;12.80;9.50;;;;;;;27.02;66.16;99720.05;109281;1253;58897;-76
2023/08/05 04:52:27;;;;;;;10.10;9.00;;;;;;;27.14;65.91;99722.63;108755;1259;71826;-75
2023/08/05 04:54:55;;;;;;;10.70;9.60;;;;;;;27.20;65.16;99725.78;107048;1254;69038;-77
2023/08/05 04:57:22;;;;;;;14.00;9.40;;;;;;;27.22;64.86;99725.21;109222;1254;72525;-78
2023/08/05 04:59:50;;;;;;;9.20;8.40;;;;;;;27.25;64.72;99726.05;109262;1254;59173;-78
2023/08/05 05:02:17;;;;;;;10.90;9.80;;;;;;;27.37;64.38;99730.73;108936;1253;58789;-78
2023/08/05 05:04:45;;;;;;;10.80;9.70;;;;;;;27.48;64.38;99731.19;109272;1254;72152;-78
2023/08/05 05:07:13;;;;;;;9.60;8.70;;;;;;;27.54;63.94;99727.61;108908;1253;69092;-75
2023/08/05 05:09:40;;;;;;;9.90;8.90;;;;;;;27.54;63.46;99726.30;109310;1254;71270;-77
2023/08/05 05:12:08;;;;;;;10.30;9.20;;;;;;;27.51;63.63;99724.37;109043;1254;58969;-76
2023/08/05 05:14:41;;;;;;;10.70;9.30;;;;;;;27.49;63.30;99723.98;109052;1254;59598;-74
2023/08/05 05:17:09;;;;;;;12.20;10.60;;;;;;;27.46;63.06;99733.76;109049;1253;71581;-72
2023/08/05 05:19:38;;;;;;;11.00;9.10;;;;;;;27.41;62.75;99739.08;108930;1258;68913;-71
2023/08/05 05:22:06;;;;;;;10.20;9.20;;;;;;;27.32;62.88;99730.23;108641;1255;71358;-71
2023/08/05 05:24:34;;;;;;;10.60;9.60;;;;;;;27.24;62.96;99727.95;108302;1254;59038;-71
2023/08/05 05:27:01;;;;;;;13.20;10.30;;;;;;;27.23;63.30;99731.33;108874;1253;61378;-72
2023/08/05 05:29:29;;;;;;;12.00;9.50;;;;;;;27.22;63.16;99731.23;108936;1252;74509;-73
2023/08/05 05:31:57;;;;;;;10.00;9.00;;;;;;;27.26;63.10;99738.66;108867;1254;68683;-74
2023/08/05 05:34:25;;;;;;;10.80;9.80;;;;;;;27.29;62.97;99738.09;108187;1257;74279;-72
2023/08/05 05:36:52;;;;;;;11.10;10.10;;;;;;;27.30;62.75;99727.52;108043;1255;60532;-75
2023/08/05 05:39:21;;;;;;;12.40;10.00;;;;;;;27.32;62.41;99726.20;107847;1256;59614;-73
2023/08/05 05:41:48;;;;;;;10.90;9.60;;;;;;;27.33;62.18;99723.95;106172;1260;72023;-74
2023/08/05 05:44:16;;;;;;;13.10;10.60;;;;;;;27.32;61.94;99722.14;105806;1259;70482;-71
2023/08/05 05:46:44;;;;;;;10.20;9.20;;;;;;;27.30;62.02;99723.91;105716;1258;71400;-74
2023/08/05 05:49:12;;;;;;;11.00;9.90;;;;;;;27.30;62.31;99722.02;105744;1258;59602;-73
2023/08/05 05:51:42;;;;;;;10.50;9.50;;;;;;;27.33;62.38;99725.85;105896;1258;60048;-74
2023/08/05 05:54:09;;;;;;;12.60;10.40;;;;;;;27.35;62.42;99722.52;105433;1260;75565;-72
2023/08/05 05:56:37;;;;;;;11.90;10.00;;;;;;;-128.00;-1.00;-1.00;102055;1267;1057192;-71
2023/08/05 05:59:05;;;;;;;11.40;10.30;;;;;;;-128.00;-1.00;-1.00;102042;1260;1004171;-74
2023/08/05 06:01:33;;;;;;;16.40;10.30;;;;;;;-128.00;-1.00;-1.00;101831;1261;1005224;-74
2023/08/05 06:04:03;;;;;;;11.10;10.10;;;;;;;-128.00;-1.00;-1.00;102285;1259;1006882;-75
2023/08/05 06:06:32;;;;;;;11.40;10.20;;;;;;;-128.00;-1.00;-1.00;102128;1256;1060375;-77
2023/08/05 06:09:00;;;;;;;11.20;10.10;;;;;;;-128.00;-1.00;-1.00;102587;1254;1005175;-78
2023/08/05 06:11:32;;;;;;;11.40;10.10;;;;;;;-128.00;-1.00;-1.00;103967;1254;1059595;-76
2023/08/05 06:13:59;;;;;;;12.70;10.30;;;;;;;-128.00;-1.00;-1.00;104129;1257;1047644;-77
2023/08/05 06:16:27;;;;;;;12.90;11.00;;;;;;;-128.00;-1.00;-1.00;102623;1255;1005149;-77
2023/08/05 06:18:54;;;;;;;11.70;10.40;;;;;;;-128.00;-1.00;-1.00;102555;1260;1005016;-78
2023/08/05 06:21:22;;;;;;;11.10;10.00;;;;;;;-128.00;-1.00;-1.00;102324;1255;1004732;-76
2023/08/05 06:23:50;;;;;;;11.60;10.40;;;;;;;-128.00;-1.00;-1.00;102541;1269;1006487;-77
2023/08/05 06:26:18;;;;;;;13.80;10.00;;;;;;;-128.00;-1.00;-1.00;102101;1255;1004804;-77
2023/08/05 06:28:45;;;;;;;11.10;9.40;;;;;;;-128.00;-1.00;-1.00;102148;1255;1004042;-79
2023/08/05 06:31:13;;;;;;;10.60;9.10;;;;;;;-128.00;-1.00;-1.00;102029;1253;1005243;-74
2023/08/05 06:33:41;;;;;;;11.00;9.80;;;;;;;-128.00;-1.00;-1.00;102015;1254;1006122;-74
2023/08/05 06:36:08;;;;;;;12.10;10.00;;;;;;;-128.00;-1.00;-1.00;102092;1254;1004481;-77
2023/08/05 06:38:36;;;;;;;13.40;10.50;;;;;;;-128.00;-1.00;-1.00;102394;1267;1005176;-77
2023/08/05 06:41:03;;;;;;;11.40;10.00;;;;;;;-128.00;-1.00;-1.00;102726;1254;1004146;-77
2023/08/05 06:43:31;;;;;;;11.80;10.60;;;;;;;-128.00;-1.00;-1.00;103985;1259;1004299;-76
2023/08/05 06:45:59;;;;;;;11.50;9.80;;;;;;;-128.00;-1.00;-1.00;103085;1254;1004240;-78
2023/08/05 06:48:26;;;;;;;12.80;9.70;;;;;;;-128.00;-1.00;-1.00;102406;1260;1003843;-77
2023/08/05 06:50:54;;;;;;;12.50;9.90;;;;;;;-128.00;-1.00;-1.00;102056;1254;1004378;-74
2023/08/05 06:53:22;;;;;;;12.90;10.60;;;;;;;-128.00;-1.00;-1.00;102035;1255;1004324;-78
2023/08/05 06:56:02;;;;;;;11.40;10.00;;;;;;;-128.00;-1.00;-1.00;102175;1254;1004353;-79
2023/08/05 06:58:30;;;;;;;11.00;9.80;;;;;;;-128.00;-1.00;-1.00;102347;1253;1057368;-75
2023/08/05 07:00:57;;;;;;;11.30;9.10;;;;;;;-128.00;-1.00;-1.00;102301;1257;1003815;-77
2023/08/05 07:03:25;;;;;;;10.00;9.10;;;;;;;-128.00;-1.00;-1.00;102333;1254;1005159;-77
2023/08/05 07:05:55;;;;;;;11.50;9.60;;;;;;;-128.00;-1.00;-1.00;102396;1255;1003897;-78
2023/08/05 07:08:23;;;;;;;9.90;8.90;;;;;;;-128.00;-1.00;-1.00;102411;1259;1059427;-75
2023/08/05 07:10:57;;;;;;;11.60;9.10;;;;;;;-128.00;-1.00;-1.00;101894;1260;1056685;-76
2023/08/05 07:13:25;;;;;;;10.10;9.10;;;;;;;-128.00;-1.00;-1.00;102356;1254;1059232;-78
2023/08/05 07:16:03;;;;;;;10.70;9.70;;;;;;;-128.00;-1.00;-1.00;103974;1257;1005050;-76
2023/08/05 07:18:30;;;;;;;10.50;8.70;;;;;;;-128.00;-1.00;-1.00;103192;1260;1047847;-78
2023/08/05 07:20:58;;;;;;;10.40;9.40;;;;;;;-128.00;-1.00;-1.00;102936;1260;1004798;-77
2023/08/05 07:23:26;;;;;;;12.30;8.80;;;;;;;-128.00;-1.00;-1.00;102145;1254;1004624;-76
2023/08/05 07:25:53;;;;;;;11.10;9.50;;;;;;;-128.00;-1.00;-1.00;102115;1258;1005087;-76
2023/08/05 07:28:21;;;;;;;10.30;9.10;;;;;;;-128.00;-1.00;-1.00;102429;1257;1005691;-78
2023/08/05 07:30:49;;;;;;;12.20;8.40;;;;;;;-128.00;-1.00;-1.00;102278;1260;1004528;-78
2023/08/05 07:33:17;;;;;;;12.00;8.80;;;;;;;-128.00;-1.00;-1.00;102238;1261;1004760;-77
2023/08/05 07:35:44;;;;;;;9.90;9.00;;;;;;;-128.00;-1.00;-1.00;102535;1259;1004796;-74
2023/08/05 07:38:12;;;;;;;10.10;9.20;;;;;;;-128.00;-1.00;-1.00;102494;1254;1004325;-77
2023/08/05 07:40:40;;;;;;;9.70;8.80;;;;;;;-128.00;-1.00;-1.00;102757;1256;1004665;-78
2023/08/05 07:43:09;;;;;;;10.40;9.50;;;;;;;-128.00;-1.00;-1.00;102499;1253;1049081;-77
2023/08/05 07:45:36;;;;;;;9.90;8.90;;;;;;;-128.00;-1.00;-1.00;104165;1253;1006158;-76
2023/08/05 07:48:09;;;;;;;10.80;9.30;;;;;;;-128.00;-1.00;-1.00;105077;1254;1004812;-77
2023/08/05 07:50:36;;;;;;;10.70;9.00;;;;;;;-128.00;-1.00;-1.00;105530;1253;1059425;-78
2023/08/05 07:53:05;;;;;;;9.80;8.90;;;;;;;-128.00;-1.00;-1.00;105605;1252;1004799;-77
2023/08/05 07:55:37;;;;;;;9.10;8.20;;;;;;;-128.00;-1.00;-1.00;105390;1253;1049829;-76
2023/08/05 07:58:06;;;;;;;10.30;9.40;;;;;;;-128.00;-1.00;-1.00;105228;1253;1061646;-77
2023/08/05 08:00:34;;;;;;;11.70;8.50;;;;;;;-128.00;-1.00;-1.00;105079;1254;1004241;-76
2023/08/05 08:03:02;;;;;;;10.20;8.50;;;;;;;-128.00;-1.00;-1.00;105239;1254;1004378;-76
2023/08/05 08:05:30;;;;;;;9.70;8.80;;;;;;;-128.00;-1.00;-1.00;104898;1254;1004473;-79
2023/08/05 08:07:57;;;;;;;13.30;8.90;;;;;;;-128.00;-1.00;-1.00;103612;1254;1004548;-76
2023/08/05 08:10:25;;;;;;;10.40;9.40;;;;;;;-128.00;-1.00;-1.00;102066;1254;1005503;-78
2023/08/05 08:12:53;;;;;;;11.60;8.60;;;;;;;-128.00;-1.00;-1.00;102439;1257;1004658;-74
2023/08/05 08:15:20;;;;;;;9.00;8.20;;;;;;;-128.00;-1.00;-1.00;102313;1258;1004053;-76
2023/08/05 08:17:48;;;;;;;11.20;8.80;;;;;;;-128.00;-1.00;-1.00;103404;1252;1003867;-78
2023/08/05 08:20:16;;;;;;;8.80;8.00;;;;;;;-128.00;-1.00;-1.00;103249;1254;1003623;-74
2023/08/05 08:22:44;;;;;;;9.30;8.30;;;;;;;-128.00;-1.00;-1.00;102904;1258;1004325;-77
2023/08/05 08:25:11;;;;;;;8.70;7.80;;;;;;;-128.00;-1.00;-1.00;101982;1254;1004419;-75
2023/08/05 08:27:39;;;;;;;8.60;7.80;;;;;;;-128.00;-1.00;-1.00;102347;1255;1005461;-76
2023/08/05 08:30:06;;;;;;;10.60;8.10;;;;;;;-128.00;-1.00;-1.00;102322;1258;1005882;-77
2023/08/05 08:32:34;;;;;;;9.20;8.30;;;;;;;-128.00;-1.00;-1.00;102257;1254;1004843;-74
2023/08/05 08:35:02;;;;;;;9.90;8.00;;;;;;;-128.00;-1.00;-1.00;102669;1253;1004281;-74
2023/08/05 08:37:32;;;;;;;17.70;7.60;;;;;;;-128.00;-1.00;-1.00;102583;1254;1005159;-82
2023/08/05 08:40:00;;;;;;;8.80;7.80;;;;;;;-128.00;-1.00;-1.00;104598;1254;1058633;-82
2023/08/05 08:42:28;;;;;;;9.30;7.60;;;;;;;-128.00;-1.00;-1.00;104716;1254;1004101;-83
2023/08/05 08:44:57;;;;;;;7.60;6.90;;;;;;;-128.00;-1.00;-1.00;104690;1254;1046383;-83
2023/08/05 08:47:26;;;;;;;8.50;7.50;;;;;;;-128.00;-1.00;-1.00;104977;1254;1060221;-85
2023/08/05 08:49:59;;;;;;;11.80;7.20;;;;;;;-128.00;-1.00;-1.00;105639;1254;1057206;-85
2023/08/05 08:52:34;;;;;;;9.30;7.30;;;;;;;-128.00;-1.00;-1.00;105754;1254;1059162;-86
2023/08/05 08:55:05;;;;;;;8.80;6.90;;;;;;;-128.00;-1.00;-1.00;104883;1252;1046211;-85
2023/08/05 08:57:39;;;;;;;10.50;7.10;;;;;;;-128.00;-1.00;-1.00;104812;1253;1047262;-87
2023/08/05 09:03:28;;;;;;;8.40;7.60;;;;;;;-128.00;-1.00;-1.00;95016;1266;1057504;-88
2023/08/05 09:06:00;;;;;;;10.50;7.20;;;;;;;-128.00;-1.00;-1.00;103878;1270;1059331;-87
2023/08/05 09:08:28;;;;;;;7.30;6.60;;;;;;;-128.00;-1.00;-1.00;103122;1270;1003618;-84
2023/08/05 09:10:56;;;;;;;9.20;6.80;;;;;;;-128.00;-1.00;-1.00;102047;1270;1004204;-83
2023/08/05 09:13:27;;;;;;;8.80;6.80;;;;;;;-128.00;-1.00;-1.00;101869;1268;1061614;-85
2023/08/05 09:15:54;;;;;;;8.60;6.70;;;;;;;-128.00;-1.00;-1.00;104068;1270;1004062;-86
2023/08/05 09:18:23;;;;;;;8.10;6.50;;;;;;;-128.00;-1.00;-1.00;103314;1270;1004420;-84
2023/08/05 09:20:51;;;;;;;9.10;7.20;;;;;;;-128.00;-1.00;-1.00;104019;1269;1006397;-83
2023/08/05 09:23:19;;;;;;;10.00;6.70;;;;;;;-128.00;-1.00;-1.00;104811;1269;1004591;-81
2023/08/05 09:25:47;;;;;;;9.50;6.40;;;;;;;-128.00;-1.00;-1.00;103064;1268;1004874;-84
2023/08/05 09:28:30;;;;;;;9.00;6.80;;;;;;;-128.00;-1.00;-1.00;103039;1268;1059933;-84
2023/08/05 09:31:16;;;;;;;7.50;6.10;;;;;;;-128.00;-1.00;-1.00;102610;1275;1058619;-85
2023/08/05 09:33:46;;;;;;;7.00;6.40;;;;;;;-128.00;-1.00;-1.00;102361;1270;1048176;-77
2023/08/05 09:36:22;;;;;;;7.70;6.90;;;;;;;-128.00;-1.00;-1.00;101021;1271;1004191;-78
2023/08/05 09:39:02;;;;;;;7.10;5.90;;;;;;;-128.00;-1.00;-1.00;101278;1276;1059893;-78
2023/08/05 09:41:31;;;;;;;6.60;6.00;;;;;;;-128.00;-1.00;-1.00;101929;1270;1057343;-75
2023/08/05 09:43:59;;;;;;;7.20;6.20;;;;;;;-128.00;-1.00;-1.00;102122;1270;1059194;-80
2023/08/05 09:46:32;;;;;;;6.40;5.80;;;;;;;-128.00;-1.00;-1.00;101729;1273;1005021;-80
2023/08/05 09:49:00;;;;;;;7.30;6.10;;;;;;;-128.00;-1.00;-1.00;102354;1270;1047634;-79
2023/08/05 09:51:28;;;;;;;6.20;5.70;;;;;;;-128.00;-1.00;-1.00;102903;1270;1004306;-79
2023/08/05 09:53:56;;;;;;;7.30;5.60;;;;;;;-128.00;-1.00;-1.00;102411;1268;1004371;-80
2023/08/05 09:56:25;;;;;;;6.30;5.50;;;;;;;-128.00;-1.00;-1.00;101442;1269;1005005;-80
2023/08/05 09:58:53;;;;;;;5.90;5.40;;;;;;;-128.00;-1.00;-1.00;101299;1272;1049069;-78
2023/08/05 10:01:20;;;;;;;6.20;5.70;;;;;;;-128.00;-1.00;-1.00;101342;1273;1003520;-80
2023/08/05 10:03:49;;;;;;;6.00;5.50;;;;;;;-128.00;-1.00;-1.00;101437;1273;1004410;-79
2023/08/05 10:06:16;;;;;;;9.80;6.00;;;;;;;-128.00;-1.00;-1.00;101426;1273;1004587;-80
2023/08/05 10:08:44;;;;;;;6.80;6.20;;;;;;;-128.00;-1.00;-1.00;101201;1276;1003656;-81
2023/08/05 10:11:11;;;;;;;6.20;5.70;;;;;;;-128.00;-1.00;-1.00;101347;1270;1005063;-80
2023/08/05 10:13:41;;;;;;;7.30;5.80;;;;;;;-128.00;-1.00;-1.00;101573;1269;1004550;-80
2023/08/05 10:16:08;;;;;;;10.20;6.10;;;;;;;-128.00;-1.00;-1.00;101777;1270;1065477;-75
2023/08/05 10:18:37;;;;;;;7.00;5.90;;;;;;;-128.00;-1.00;-1.00;102400;1273;1005130;-80
2023/08/05 10:21:06;;;;;;;6.90;6.20;;;;;;;-128.00;-1.00;-1.00;103718;1275;1062518;-80
2023/08/05 10:23:38;;;;;;;6.20;5.70;;;;;;;-128.00;-1.00;-1.00;103811;1270;1046711;-80
2023/08/05 10:26:06;;;;;;;7.20;5.70;;;;;;;-128.00;-1.00;-1.00;102965;1270;1004773;-76
2023/08/05 10:28:34;;;;;;;6.00;5.40;;;;;;;-128.00;-1.00;-1.00;101821;1270;1004584;-77
2023/08/05 10:31:05;;;;;;;9.70;6.30;;;;;;;-128.00;-1.00;-1.00;101696;1270;1004710;-79
2023/08/05 10:34:10;;;;;;;7.30;6.10;;;;;;;-128.00;-1.00;-1.00;101856;1271;1059111;-80
2023/08/05 10:36:47;;;;;;;6.80;6.10;;;;;;;-128.00;-1.00;-1.00;101736;1273;1046412;-79
2023/08/05 10:39:40;;;;;;;6.60;6.00;;;;;;;-128.00;-1.00;-1.00;101927;1271;1046449;-79
2023/08/05 10:42:18;;;;;;;7.50;6.70;;;;;;;-128.00;-1.00;-1.00;102775;1270;1061080;-80
2023/08/05 10:44:54;;;;;;;6.50;5.90;;;;;;;-128.00;-1.00;-1.00;104300;1270;1057118;-79
2023/08/05 10:47:22;;;;;;;7.10;5.60;;;;;;;-128.00;-1.00;-1.00;104734;1269;1058349;-79
2023/08/05 10:49:59;;;;;;;6.80;5.50;;;;;;;-128.00;-1.00;-1.00;104609;1271;1003279;-76
2023/08/05 10:52:29;;;;;;;6.50;5.80;;;;;;;-128.00;-1.00;-1.00;104220;1273;1047285;-79
2023/08/05 10:54:57;;;;;;;6.40;5.90;;;;;;;-128.00;-1.00;-1.00;104474;1273;1003768;-78
2023/08/05 10:57:33;;;;;;;6.20;5.70;;;;;;;-128.00;-1.00;-1.00;104446;1269;1004848;-78
2023/08/05 11:00:03;;;;;;;5.90;5.30;;;;;;;-128.00;-1.00;-1.00;104287;1270;1064068;-80
2023/08/05 11:02:33;;;;;;;6.20;5.70;;;;;;;-128.00;-1.00;-1.00;104193;1269;1047804;-80
2023/08/05 11:05:08;;;;;;;6.20;5.60;;;;;;;-128.00;-1.00;-1.00;104468;1270;1047679;-78
2023/08/05 11:07:37;;;;;;;6.70;6.20;;;;;;;-128.00;-1.00;-1.00;104343;1268;1061067;-77
2023/08/05 11:10:05;;;;;;;7.80;6.50;;;;;;;-128.00;-1.00;-1.00;104232;1270;1057208;-77
2023/08/05 11:12:33;;;;;;;6.60;6.00;;;;;;;-128.00;-1.00;-1.00;104082;1270;1004054;-81
2023/08/05 11:15:01;;;;;;;6.80;6.10;;;;;;;-128.00;-1.00;-1.00;101404;1271;1004355;-78
2023/08/05 11:17:28;;;;;;;6.70;6.10;;;;;;;-128.00;-1.00;-1.00;101107;1273;1003982;-79
2023/08/05 11:19:58;;;;;;;7.10;6.30;;;;;;;-128.00;-1.00;-1.00;101173;1270;1005342;-77
2023/08/05 11:22:32;;;;;;;6.80;6.20;;;;;;;-128.00;-1.00;-1.00;102161;1276;1057533;-78
2023/08/05 11:25:00;;;;;;;6.60;6.00;;;;;;;-128.00;-1.00;-1.00;101817;1270;1059074;-81
2023/08/05 11:27:32;;;;;;;10.40;6.40;;;;;;;-128.00;-1.00;-1.00;101248;1270;1049005;-79
2023/08/05 11:30:13;;;;;;;6.50;6.00;;;;;;;-128.00;-1.00;-1.00;100981;1271;1047513;-78
2023/08/05 11:32:55;;;;;;;7.60;6.00;;;;;;;-128.00;-1.00;-1.00;101126;1270;1066017;-77
2023/08/05 11:35:26;;;;;;;6.30;5.80;;;;;;;-128.00;-1.00;-1.00;101232;1275;1057275;-76
2023/08/05 11:37:53;;;;;;;6.80;6.30;;;;;;;-128.00;-1.00;-1.00;101225;1270;1061803;-74
2023/08/05 11:40:21;;;;;;;7.50;6.10;;;;;;;-128.00;-1.00;-1.00;101109;1270;1004279;-78
2023/08/05 11:42:49;;;;;;;6.80;6.10;;;;;;;-128.00;-1.00;-1.00;101123;1269;1005902;-77
2023/08/05 11:45:16;;;;;;;6.10;5.60;;;;;;;-128.00;-1.00;-1.00;100842;1276;1003661;-77
2023/08/05 11:47:44;;;;;;;6.80;6.00;;;;;;;-128.00;-1.00;-1.00;101176;1274;1007479;-75
2023/08/05 11:50:12;;;;;;;7.30;6.30;;;;;;;-128.00;-1.00;-1.00;101497;1271;1005574;-79
2023/08/05 11:52:40;;;;;;;6.30;5.70;;;;;;;-128.00;-1.00;-1.00;102262;1270;1004824;-76
2023/08/05 11:55:09;;;;;;;6.40;5.70;;;;;;;-128.00;-1.00;-1.00;102806;1270;1004653;-77